sensor_id;sensor_type;location;lat;lon;timestamp;temperature;humidity
54576;DHT22;40472;53.486;14.542;2022-08-04T00:10:35;20.60;93.80
54576;DHT22;40472;53.486;14.542;2022-08-04T00:13:03;20.60;93.70
54576;DHT22;40472;53.486;14.542;2022-08-04T00:15:31;20.50;93.90
54576;DHT22;40472;53.486;14.542;2022-08-04T00:18:06;20.50;94.00
54576;DHT22;40472;53.486;14.542;2022-08-04T00:20:36;20.40;94.20
54576;DHT22;40472;53.486;14.542;2022-08-04T00:23:03;20.40;94.20
54576;DHT22;40472;53.486;14.542;2022-08-04T00:25:30;20.40;94.00
54576;DHT22;40472;53.486;14.542;2022-08-04T00:27:56;20.40;94.00
54576;DHT22;40472;53.486;14.542;2022-08-04T00:30:22;20.40;94.00
54576;DHT22;40472;53.486;14.542;2022-08-04T00:32:49;20.40;94.20
54576;DHT22;40472;53.486;14.542;2022-08-04T00:35:15;20.30;94.30
54576;DHT22;40472;53.486;14.542;2022-08-04T00:37:44;20.30;94.20
54576;DHT22;40472;53.486;14.542;2022-08-04T00:49:13;20.20;94.20
54576;DHT22;40472;53.486;14.542;2022-08-04T01:02:49;20.00;95.10
54576;DHT22;40472;53.486;14.542;2022-08-04T01:05:14;20.00;95.40
54576;DHT22;40472;53.486;14.542;2022-08-04T01:16:01;19.90;98.00
54576;DHT22;40472;53.486;14.542;2022-08-04T01:24:44;19.80;99.30
54576;DHT22;40472;53.486;14.542;2022-08-04T01:27:48;19.80;99.20
54576;DHT22;40472;53.486;14.542;2022-08-04T01:30:21;19.90;99.20
54576;DHT22;40472;53.486;14.542;2022-08-04T01:33:03;19.90;99.20
54576;DHT22;40472;53.486;14.542;2022-08-04T01:35:56;19.80;99.20
54576;DHT22;40472;53.486;14.542;2022-08-04T01:38:37;19.80;99.30
54576;DHT22;40472;53.486;14.542;2022-08-04T01:41:05;19.80;99.30
54576;DHT22;40472;53.486;14.542;2022-08-04T01:43:33;19.80;99.40
54576;DHT22;40472;53.486;14.542;2022-08-04T01:46:03;19.80;99.80
54576;DHT22;40472;53.486;14.542;2022-08-04T01:48:30;19.80;99.90
54576;DHT22;40472;53.486;14.542;2022-08-04T01:51:03;19.70;99.90
54576;DHT22;40472;53.486;14.542;2022-08-04T01:53:31;19.60;99.90
54576;DHT22;40472;53.486;14.542;2022-08-04T01:56:00;19.60;99.90
54576;DHT22;40472;53.486;14.542;2022-08-04T01:58:29;19.50;99.90
54576;DHT22;40472;53.486;14.542;2022-08-04T02:01:03;19.40;99.90
54576;DHT22;40472;53.486;14.542;2022-08-04T02:03:30;19.40;99.90
54576;DHT22;40472;53.486;14.542;2022-08-04T02:06:26;19.30;99.90
54576;DHT22;40472;53.486;14.542;2022-08-04T02:11:17;19.30;99.90
54576;DHT22;40472;53.486;14.542;2022-08-04T02:13:55;19.20;99.90
54576;DHT22;40472;53.486;14.542;2022-08-04T02:21:29;19.20;99.90
54576;DHT22;40472;53.486;14.542;2022-08-04T02:24:16;19.30;99.90
54576;DHT22;40472;53.486;14.542;2022-08-04T02:26:47;19.30;99.90
54576;DHT22;40472;53.486;14.542;2022-08-04T02:31:48;19.50;99.90
54576;DHT22;40472;53.486;14.542;2022-08-04T02:34:28;19.50;99.90
54576;DHT22;40472;53.486;14.542;2022-08-04T02:36:58;19.50;99.90
54576;DHT22;40472;53.486;14.542;2022-08-04T02:39:30;19.60;99.90
54576;DHT22;40472;53.486;14.542;2022-08-04T02:41:58;19.60;99.90
54576;DHT22;40472;53.486;14.542;2022-08-04T02:44:25;19.60;99.90
54576;DHT22;40472;53.486;14.542;2022-08-04T02:46:53;19.60;99.90
54576;DHT22;40472;53.486;14.542;2022-08-04T02:49:21;19.70;99.90
54576;DHT22;40472;53.486;14.542;2022-08-04T02:51:50;19.70;99.90
54576;DHT22;40472;53.486;14.542;2022-08-04T02:54:19;19.70;99.90
54576;DHT22;40472;53.486;14.542;2022-08-04T02:56:50;19.70;99.90
54576;DHT22;40472;53.486;14.542;2022-08-04T02:59:19;19.70;99.90
54576;DHT22;40472;53.486;14.542;2022-08-04T03:01:48;19.70;99.90
54576;DHT22;40472;53.486;14.542;2022-08-04T03:21:37;19.40;99.90
54576;DHT22;40472;53.486;14.542;2022-08-04T03:30:17;19.50;99.90
54576;DHT22;40472;53.486;14.542;2022-08-04T03:36:08;19.40;99.90
54576;DHT22;40472;53.486;14.542;2022-08-04T03:55:37;19.40;99.90
54576;DHT22;40472;53.486;14.542;2022-08-04T04:04:25;19.30;99.90
54576;DHT22;40472;53.486;14.542;2022-08-04T04:12:09;19.10;99.90
54576;DHT22;40472;53.486;14.542;2022-08-04T04:17:34;19.10;99.90
54576;DHT22;40472;53.486;14.542;2022-08-04T04:28:51;19.10;99.90
54576;DHT22;40472;53.486;14.542;2022-08-04T04:31:30;19.20;99.90
54576;DHT22;40472;53.486;14.542;2022-08-04T04:46:38;19.40;99.90
54576;DHT22;40472;53.486;14.542;2022-08-04T04:55:09;19.50;99.90
54576;DHT22;40472;53.486;14.542;2022-08-04T04:57:38;19.60;99.90
54576;DHT22;40472;53.486;14.542;2022-08-04T05:00:08;19.60;99.90
54576;DHT22;40472;53.486;14.542;2022-08-04T05:03:13;19.70;99.90
54576;DHT22;40472;53.486;14.542;2022-08-04T05:08:53;19.80;99.90
54576;DHT22;40472;53.486;14.542;2022-08-04T05:14:05;20.00;99.90
54576;DHT22;40472;53.486;14.542;2022-08-04T05:16:43;20.00;99.90
54576;DHT22;40472;53.486;14.542;2022-08-04T05:19:27;20.10;99.90
54576;DHT22;40472;53.486;14.542;2022-08-04T05:22:13;20.20;99.90
54576;DHT22;40472;53.486;14.542;2022-08-04T05:24:44;20.30;99.90
54576;DHT22;40472;53.486;14.542;2022-08-04T05:27:24;20.30;99.90
54576;DHT22;40472;53.486;14.542;2022-08-04T05:29:58;20.40;99.90
54576;DHT22;40472;53.486;14.542;2022-08-04T05:32:30;20.40;99.90
54576;DHT22;40472;53.486;14.542;2022-08-04T05:35:02;20.40;99.90
54576;DHT22;40472;53.486;14.542;2022-08-04T05:37:29;20.60;99.90
54576;DHT22;40472;53.486;14.542;2022-08-04T05:39:59;20.70;99.90
54576;DHT22;40472;53.486;14.542;2022-08-04T05:42:28;20.70;99.90
54576;DHT22;40472;53.486;14.542;2022-08-04T05:44:54;20.80;99.90
54576;DHT22;40472;53.486;14.542;2022-08-04T05:47:21;20.80;99.90
54576;DHT22;40472;53.486;14.542;2022-08-04T05:49:48;20.90;99.90
54576;DHT22;40472;53.486;14.542;2022-08-04T05:52:14;21.10;99.90
54576;DHT22;40472;53.486;14.542;2022-08-04T05:54:41;21.20;99.90
54576;DHT22;40472;53.486;14.542;2022-08-04T05:57:08;21.20;99.90
54576;DHT22;40472;53.486;14.542;2022-08-04T05:59:37;21.30;99.90
54576;DHT22;40472;53.486;14.542;2022-08-04T06:02:07;21.30;99.90
54576;DHT22;40472;53.486;14.542;2022-08-04T06:04:39;21.70;99.90
54576;DHT22;40472;53.486;14.542;2022-08-04T06:07:05;21.90;99.90
54576;DHT22;40472;53.486;14.542;2022-08-04T06:09:32;21.90;99.90
54576;DHT22;40472;53.486;14.542;2022-08-04T06:12:01;22.00;99.90
54576;DHT22;40472;53.486;14.542;2022-08-04T06:14:40;22.10;99.90
54576;DHT22;40472;53.486;14.542;2022-08-04T06:17:08;22.20;99.90
54576;DHT22;40472;53.486;14.542;2022-08-04T06:19:34;22.20;99.90
54576;DHT22;40472;53.486;14.542;2022-08-04T06:22:03;22.10;99.90
54576;DHT22;40472;53.486;14.542;2022-08-04T06:24:31;22.20;99.90
54576;DHT22;40472;53.486;14.542;2022-08-04T06:26:57;22.30;99.90
54576;DHT22;40472;53.486;14.542;2022-08-04T06:29:24;22.30;99.90
54576;DHT22;40472;53.486;14.542;2022-08-04T06:32:05;22.40;99.90
54576;DHT22;40472;53.486;14.542;2022-08-04T06:34:56;22.50;99.90
54576;DHT22;40472;53.486;14.542;2022-08-04T06:37:24;22.60;99.90
54576;DHT22;40472;53.486;14.542;2022-08-04T06:39:51;22.70;99.90
54576;DHT22;40472;53.486;14.542;2022-08-04T06:42:19;22.80;99.90
54576;DHT22;40472;53.486;14.542;2022-08-04T06:44:49;22.90;99.90
54576;DHT22;40472;53.486;14.542;2022-08-04T06:47:17;23.10;99.90
54576;DHT22;40472;53.486;14.542;2022-08-04T06:49:47;23.40;99.90
54576;DHT22;40472;53.486;14.542;2022-08-04T06:52:15;23.50;99.90
54576;DHT22;40472;53.486;14.542;2022-08-04T06:54:50;23.50;99.90
54576;DHT22;40472;53.486;14.542;2022-08-04T06:57:25;23.70;99.90
54576;DHT22;40472;53.486;14.542;2022-08-04T07:00:09;23.60;99.90
54576;DHT22;40472;53.486;14.542;2022-08-04T07:03:00;23.90;99.90
54576;DHT22;40472;53.486;14.542;2022-08-04T07:05:27;24.00;99.90
54576;DHT22;40472;53.486;14.542;2022-08-04T07:07:53;24.10;99.90
54576;DHT22;40472;53.486;14.542;2022-08-04T07:10:20;24.30;99.90
54576;DHT22;40472;53.486;14.542;2022-08-04T07:12:47;24.30;99.90
54576;DHT22;40472;53.486;14.542;2022-08-04T07:15:16;24.40;99.90
54576;DHT22;40472;53.486;14.542;2022-08-04T07:17:43;24.40;99.90
54576;DHT22;40472;53.486;14.542;2022-08-04T07:20:09;24.40;99.90
54576;DHT22;40472;53.486;14.542;2022-08-04T07:22:36;24.50;99.90
54576;DHT22;40472;53.486;14.542;2022-08-04T07:25:07;24.50;99.90
54576;DHT22;40472;53.486;14.542;2022-08-04T07:27:33;24.70;99.90
54576;DHT22;40472;53.486;14.542;2022-08-04T07:29:59;25.00;99.90
54576;DHT22;40472;53.486;14.542;2022-08-04T07:32:26;25.00;99.90
54576;DHT22;40472;53.486;14.542;2022-08-04T07:34:52;25.00;99.90
54576;DHT22;40472;53.486;14.542;2022-08-04T07:37:20;25.20;99.90
54576;DHT22;40472;53.486;14.542;2022-08-04T07:39:47;25.20;99.90
54576;DHT22;40472;53.486;14.542;2022-08-04T07:42:18;25.30;99.90
54576;DHT22;40472;53.486;14.542;2022-08-04T07:44:46;25.50;99.90
54576;DHT22;40472;53.486;14.542;2022-08-04T07:47:16;25.50;99.90
54576;DHT22;40472;53.486;14.542;2022-08-04T07:49:43;25.60;99.50
54576;DHT22;40472;53.486;14.542;2022-08-04T07:52:09;25.80;99.60
54576;DHT22;40472;53.486;14.542;2022-08-04T07:54:37;26.00;98.70
54576;DHT22;40472;53.486;14.542;2022-08-04T07:57:03;26.00;99.90
54576;DHT22;40472;53.486;14.542;2022-08-04T07:59:29;26.20;97.60
54576;DHT22;40472;53.486;14.542;2022-08-04T08:01:58;26.30;97.90
54576;DHT22;40472;53.486;14.542;2022-08-04T08:04:26;26.40;99.90
54576;DHT22;40472;53.486;14.542;2022-08-04T08:06:52;26.40;98.70
54576;DHT22;40472;53.486;14.542;2022-08-04T08:09:19;26.50;99.60
54576;DHT22;40472;53.486;14.542;2022-08-04T08:11:50;26.40;99.30
54576;DHT22;40472;53.486;14.542;2022-08-04T08:14:17;26.60;99.90
54576;DHT22;40472;53.486;14.542;2022-08-04T08:16:43;26.60;98.70
54576;DHT22;40472;53.486;14.542;2022-08-04T08:19:10;26.60;99.90
54576;DHT22;40472;53.486;14.542;2022-08-04T08:21:36;26.50;99.60
54576;DHT22;40472;53.486;14.542;2022-08-04T08:24:03;26.50;98.50
54576;DHT22;40472;53.486;14.542;2022-08-04T08:26:30;26.60;98.50
54576;DHT22;40472;53.486;14.542;2022-08-04T08:28:55;26.80;98.40
54576;DHT22;40472;53.486;14.542;2022-08-04T08:31:21;26.90;98.70
54576;DHT22;40472;53.486;14.542;2022-08-04T08:33:48;26.80;99.50
54576;DHT22;40472;53.486;14.542;2022-08-04T08:36:25;26.90;98.70
54576;DHT22;40472;53.486;14.542;2022-08-04T08:47:18;27.30;98.90
54576;DHT22;40472;53.486;14.542;2022-08-04T08:58:31;27.90;97.60
54576;DHT22;40472;53.486;14.542;2022-08-04T09:12:05;27.90;95.60
54576;DHT22;40472;53.486;14.542;2022-08-04T09:14:39;28.20;96.50
54576;DHT22;40472;53.486;14.542;2022-08-04T09:17:36;28.10;96.90
54576;DHT22;40472;53.486;14.542;2022-08-04T09:20:17;28.10;96.00
54576;DHT22;40472;53.486;14.542;2022-08-04T09:23:25;28.10;95.40
54576;DHT22;40472;53.486;14.542;2022-08-04T09:26:30;28.10;96.60
54576;DHT22;40472;53.486;14.542;2022-08-04T09:31:35;28.30;95.80
54576;DHT22;40472;53.486;14.542;2022-08-04T09:34:16;28.40;95.00
54576;DHT22;40472;53.486;14.542;2022-08-04T09:36:55;28.60;93.40
54576;DHT22;40472;53.486;14.542;2022-08-04T09:39:29;28.60;94.50
54576;DHT22;40472;53.486;14.542;2022-08-04T09:45:06;28.50;95.90
54576;DHT22;40472;53.486;14.542;2022-08-04T09:47:38;28.60;95.40
54576;DHT22;40472;53.486;14.542;2022-08-04T09:50:33;28.60;94.10
54576;DHT22;40472;53.486;14.542;2022-08-04T09:56:29;28.90;92.90
54576;DHT22;40472;53.486;14.542;2022-08-04T09:59:28;28.90;93.50
54576;DHT22;40472;53.486;14.542;2022-08-04T10:02:04;29.20;92.40
54576;DHT22;40472;53.486;14.542;2022-08-04T10:04:32;29.30;91.80
54576;DHT22;40472;53.486;14.542;2022-08-04T10:15:13;29.60;90.60
54576;DHT22;40472;53.486;14.542;2022-08-04T10:24:06;29.80;90.90
54576;DHT22;40472;53.486;14.542;2022-08-04T10:29:08;29.90;88.50
54576;DHT22;40472;53.486;14.542;2022-08-04T10:31:45;30.00;90.10
54576;DHT22;40472;53.486;14.542;2022-08-04T10:34:20;30.30;85.30
54576;DHT22;40472;53.486;14.542;2022-08-04T10:40:13;30.30;86.30
54576;DHT22;40472;53.486;14.542;2022-08-04T10:46:15;30.40;88.70
54576;DHT22;40472;53.486;14.542;2022-08-04T10:49:13;30.70;83.50
54576;DHT22;40472;53.486;14.542;2022-08-04T10:51:49;31.10;77.30
54576;DHT22;40472;53.486;14.542;2022-08-04T10:55:04;31.30;76.20
54576;DHT22;40472;53.486;14.542;2022-08-04T11:00:25;31.60;75.50
54576;DHT22;40472;53.486;14.542;2022-08-04T11:05:34;31.80;76.00
54576;DHT22;40472;53.486;14.542;2022-08-04T11:08:07;31.70;75.50
54576;DHT22;40472;53.486;14.542;2022-08-04T11:10:58;31.80;74.50
54576;DHT22;40472;53.486;14.542;2022-08-04T11:13:31;31.80;76.00
54576;DHT22;40472;53.486;14.542;2022-08-04T11:16:02;31.80;75.50
54576;DHT22;40472;53.486;14.542;2022-08-04T11:21:33;32.00;74.00
54576;DHT22;40472;53.486;14.542;2022-08-04T11:24:13;32.10;73.70
54576;DHT22;40472;53.486;14.542;2022-08-04T11:32:02;31.90;74.10
54576;DHT22;40472;53.486;14.542;2022-08-04T11:34:32;31.90;74.10
54576;DHT22;40472;53.486;14.542;2022-08-04T11:37:19;32.10;72.40
54576;DHT22;40472;53.486;14.542;2022-08-04T11:39:49;32.40;70.40
54576;DHT22;40472;53.486;14.542;2022-08-04T11:42:38;32.30;73.10
54576;DHT22;40472;53.486;14.542;2022-08-04T11:45:19;32.40;69.90
54576;DHT22;40472;53.486;14.542;2022-08-04T11:48:16;32.20;71.70
54576;DHT22;40472;53.486;14.542;2022-08-04T11:50:49;32.10;72.80
54576;DHT22;40472;53.486;14.542;2022-08-04T11:53:24;32.10;72.60
54576;DHT22;40472;53.486;14.542;2022-08-04T11:55:54;32.10;71.70
54576;DHT22;40472;53.486;14.542;2022-08-04T11:58:22;32.30;72.50
54576;DHT22;40472;53.486;14.542;2022-08-04T12:01:14;32.70;69.20
54576;DHT22;40472;53.486;14.542;2022-08-04T12:04:04;32.70;70.50
54576;DHT22;40472;53.486;14.542;2022-08-04T12:06:41;33.00;66.40
54576;DHT22;40472;53.486;14.542;2022-08-04T12:09:31;33.30;67.40
54576;DHT22;40472;53.486;14.542;2022-08-04T12:15:39;33.30;66.40
54576;DHT22;40472;53.486;14.542;2022-08-04T12:18:36;33.10;66.50
54576;DHT22;40472;53.486;14.542;2022-08-04T12:21:10;33.20;64.60
54576;DHT22;40472;53.486;14.542;2022-08-04T12:23:42;33.40;62.50
54576;DHT22;40472;53.486;14.542;2022-08-04T12:26:22;33.40;66.80
54576;DHT22;40472;53.486;14.542;2022-08-04T12:28:50;33.70;63.40
54576;DHT22;40472;53.486;14.542;2022-08-04T12:31:26;33.70;63.80
54576;DHT22;40472;53.486;14.542;2022-08-04T12:34:39;33.90;60.80
54576;DHT22;40472;53.486;14.542;2022-08-04T12:39:29;34.20;60.70
54576;DHT22;40472;53.486;14.542;2022-08-04T12:45:16;34.00;61.70
54576;DHT22;40472;53.486;14.542;2022-08-04T12:47:44;34.10;59.10
54576;DHT22;40472;53.486;14.542;2022-08-04T12:50:22;34.00;62.60
54576;DHT22;40472;53.486;14.542;2022-08-04T12:52:53;33.90;61.10
54576;DHT22;40472;53.486;14.542;2022-08-04T12:55:22;34.20;59.00
54576;DHT22;40472;53.486;14.542;2022-08-04T12:57:50;34.20;60.00
54576;DHT22;40472;53.486;14.542;2022-08-04T13:00:26;34.00;62.40
54576;DHT22;40472;53.486;14.542;2022-08-04T13:02:53;34.00;59.50
54576;DHT22;40472;53.486;14.542;2022-08-04T13:05:24;34.10;60.70
54576;DHT22;40472;53.486;14.542;2022-08-04T13:07:53;34.50;59.60
54576;DHT22;40472;53.486;14.542;2022-08-04T13:10:21;34.30;60.20
54576;DHT22;40472;53.486;14.542;2022-08-04T13:12:59;33.90;60.00
54576;DHT22;40472;53.486;14.542;2022-08-04T13:15:26;33.90;60.00
54576;DHT22;40472;53.486;14.542;2022-08-04T13:20:30;34.40;59.20
54576;DHT22;40472;53.486;14.542;2022-08-04T13:23:11;34.20;58.10
54576;DHT22;40472;53.486;14.542;2022-08-04T13:25:43;34.00;60.80
54576;DHT22;40472;53.486;14.542;2022-08-04T13:28:22;33.90;58.10
54576;DHT22;40472;53.486;14.542;2022-08-04T13:30:54;33.90;58.10
54576;DHT22;40472;53.486;14.542;2022-08-04T13:33:22;34.00;59.40
54576;DHT22;40472;53.486;14.542;2022-08-04T13:35:52;34.40;56.90
54576;DHT22;40472;53.486;14.542;2022-08-04T13:38:19;34.50;56.30
54576;DHT22;40472;53.486;14.542;2022-08-04T13:40:45;34.30;59.50
54576;DHT22;40472;53.486;14.542;2022-08-04T13:43:55;33.90;58.90
54576;DHT22;40472;53.486;14.542;2022-08-04T13:46:34;33.80;59.40
54576;DHT22;40472;53.486;14.542;2022-08-04T13:49:02;33.80;59.70
54576;DHT22;40472;53.486;14.542;2022-08-04T13:51:32;33.60;60.40
54576;DHT22;40472;53.486;14.542;2022-08-04T13:54:00;33.90;60.80
54576;DHT22;40472;53.486;14.542;2022-08-04T13:56:38;34.00;60.30
54576;DHT22;40472;53.486;14.542;2022-08-04T13:59:09;33.80;60.00
54576;DHT22;40472;53.486;14.542;2022-08-04T14:01:39;33.80;60.20
54576;DHT22;40472;53.486;14.542;2022-08-04T14:04:24;33.90;61.20
54576;DHT22;40472;53.486;14.542;2022-08-04T14:07:05;34.20;59.20
54576;DHT22;40472;53.486;14.542;2022-08-04T14:09:37;34.20;61.00
54576;DHT22;40472;53.486;14.542;2022-08-04T14:12:12;34.30;59.90
54576;DHT22;40472;53.486;14.542;2022-08-04T14:14:51;34.10;60.40
54576;DHT22;40472;53.486;14.542;2022-08-04T14:17:26;33.90;59.80
54576;DHT22;40472;53.486;14.542;2022-08-04T14:25:08;34.10;57.10
54576;DHT22;40472;53.486;14.542;2022-08-04T14:30:21;34.20;59.10
54576;DHT22;40472;53.486;14.542;2022-08-04T14:33:11;34.20;58.80
54576;DHT22;40472;53.486;14.542;2022-08-04T14:35:38;33.90;56.50
54576;DHT22;40472;53.486;14.542;2022-08-04T14:38:06;33.70;59.30
54576;DHT22;40472;53.486;14.542;2022-08-04T14:40:36;33.30;62.10
54576;DHT22;40472;53.486;14.542;2022-08-04T14:43:03;33.30;59.30
54576;DHT22;40472;53.486;14.542;2022-08-04T14:45:32;33.50;60.20
54576;DHT22;40472;53.486;14.542;2022-08-04T14:48:00;33.50;60.60
54576;DHT22;40472;53.486;14.542;2022-08-04T14:50:44;33.40;60.70
54576;DHT22;40472;53.486;14.542;2022-08-04T14:53:19;33.10;60.00
54576;DHT22;40472;53.486;14.542;2022-08-04T14:55:49;32.90;62.50
54576;DHT22;40472;53.486;14.542;2022-08-04T14:58:28;32.60;60.20
54576;DHT22;40472;53.486;14.542;2022-08-04T15:00:59;33.00;60.00
54576;DHT22;40472;53.486;14.542;2022-08-04T15:03:27;33.20;59.10
54576;DHT22;40472;53.486;14.542;2022-08-04T15:05:55;33.30;60.30
54576;DHT22;40472;53.486;14.542;2022-08-04T15:08:22;33.20;59.50
54576;DHT22;40472;53.486;14.542;2022-08-04T15:10:48;33.20;60.90
54576;DHT22;40472;53.486;14.542;2022-08-04T15:13:13;33.40;61.00
54576;DHT22;40472;53.486;14.542;2022-08-04T15:15:41;33.80;58.20
54576;DHT22;40472;53.486;14.542;2022-08-04T15:18:11;33.70;59.10
54576;DHT22;40472;53.486;14.542;2022-08-04T15:20:38;33.70;59.10
54576;DHT22;40472;53.486;14.542;2022-08-04T15:23:05;33.40;59.40
54576;DHT22;40472;53.486;14.542;2022-08-04T15:25:34;33.40;58.90
54576;DHT22;40472;53.486;14.542;2022-08-04T15:28:01;33.50;59.50
54576;DHT22;40472;53.486;14.542;2022-08-04T15:30:28;33.30;59.00
54576;DHT22;40472;53.486;14.542;2022-08-04T15:32:57;33.00;59.10
54576;DHT22;40472;53.486;14.542;2022-08-04T15:35:26;32.80;61.30
54576;DHT22;40472;53.486;14.542;2022-08-04T15:40:47;32.80;60.00
54576;DHT22;40472;53.486;14.542;2022-08-04T15:46:01;33.00;58.70
54576;DHT22;40472;53.486;14.542;2022-08-04T15:48:30;33.10;60.00
54576;DHT22;40472;53.486;14.542;2022-08-04T15:53:31;33.90;57.50
54576;DHT22;40472;53.486;14.542;2022-08-04T15:55:58;33.90;56.30
54576;DHT22;40472;53.486;14.542;2022-08-04T15:58:24;33.50;57.70
54576;DHT22;40472;53.486;14.542;2022-08-04T16:18:53;32.90;57.90
54576;DHT22;40472;53.486;14.542;2022-08-04T16:21:23;33.30;58.70
54576;DHT22;40472;53.486;14.542;2022-08-04T16:29:03;32.80;58.90
54576;DHT22;40472;53.486;14.542;2022-08-04T16:34:37;32.20;59.80
54576;DHT22;40472;53.486;14.542;2022-08-04T16:37:12;32.10;59.30
54576;DHT22;40472;53.486;14.542;2022-08-04T16:39:39;32.20;61.40
54576;DHT22;40472;53.486;14.542;2022-08-04T16:50:15;31.70;61.80
54576;DHT22;40472;53.486;14.542;2022-08-04T16:52:43;31.60;62.50
54576;DHT22;40472;53.486;14.542;2022-08-04T16:55:09;31.50;61.00
54576;DHT22;40472;53.486;14.542;2022-08-04T16:57:37;31.40;62.40
54576;DHT22;40472;53.486;14.542;2022-08-04T17:00:04;31.30;61.60
54576;DHT22;40472;53.486;14.542;2022-08-04T17:02:30;31.50;61.10
54576;DHT22;40472;53.486;14.542;2022-08-04T17:04:56;31.40;61.00
54576;DHT22;40472;53.486;14.542;2022-08-04T17:07:22;31.40;61.70
54576;DHT22;40472;53.486;14.542;2022-08-04T17:09:51;31.40;62.30
54576;DHT22;40472;53.486;14.542;2022-08-04T17:12:18;31.20;63.40
54576;DHT22;40472;53.486;14.542;2022-08-04T17:14:46;31.20;63.50
54576;DHT22;40472;53.486;14.542;2022-08-04T17:17:12;31.10;64.20
54576;DHT22;40472;53.486;14.542;2022-08-04T17:19:51;31.00;63.70
54576;DHT22;40472;53.486;14.542;2022-08-04T17:22:18;31.00;63.40
54576;DHT22;40472;53.486;14.542;2022-08-04T17:24:44;31.00;64.30
54576;DHT22;40472;53.486;14.542;2022-08-04T17:27:10;30.80;63.20
54576;DHT22;40472;53.486;14.542;2022-08-04T17:29:36;30.60;63.80
54576;DHT22;40472;53.486;14.542;2022-08-04T17:32:03;30.40;64.80
54576;DHT22;40472;53.486;14.542;2022-08-04T17:34:29;30.20;65.70
54576;DHT22;40472;53.486;14.542;2022-08-04T17:36:54;30.00;66.00
54576;DHT22;40472;53.486;14.542;2022-08-04T17:39:25;29.80;66.00
54576;DHT22;40472;53.486;14.542;2022-08-04T17:41:55;29.60;66.70
54576;DHT22;40472;53.486;14.542;2022-08-04T17:44:36;29.40;66.80
54576;DHT22;40472;53.486;14.542;2022-08-04T17:47:18;29.30;66.70
54576;DHT22;40472;53.486;14.542;2022-08-04T17:49:44;29.30;66.40
54576;DHT22;40472;53.486;14.542;2022-08-04T17:52:23;29.30;66.70
54576;DHT22;40472;53.486;14.542;2022-08-04T17:54:58;29.30;67.30
54576;DHT22;40472;53.486;14.542;2022-08-04T17:57:28;29.20;68.40
54576;DHT22;40472;53.486;14.542;2022-08-04T18:03:26;29.00;67.70
54576;DHT22;40472;53.486;14.542;2022-08-04T18:05:52;28.80;68.50
54576;DHT22;40472;53.486;14.542;2022-08-04T18:08:24;28.60;70.00
54576;DHT22;40472;53.486;14.542;2022-08-04T18:10:52;28.50;71.10
54576;DHT22;40472;53.486;14.542;2022-08-04T18:13:18;28.40;69.40
54576;DHT22;40472;53.486;14.542;2022-08-04T18:15:45;28.20;70.00
54576;DHT22;40472;53.486;14.542;2022-08-04T18:18:20;28.00;70.20
54576;DHT22;40472;53.486;14.542;2022-08-04T18:20:47;27.90;71.10
54576;DHT22;40472;53.486;14.542;2022-08-04T18:23:14;27.80;71.70
54576;DHT22;40472;53.486;14.542;2022-08-04T18:25:46;27.60;72.40
54576;DHT22;40472;53.486;14.542;2022-08-04T18:28:12;27.60;71.80
54576;DHT22;40472;53.486;14.542;2022-08-04T18:30:39;27.60;71.80
54576;DHT22;40472;53.486;14.542;2022-08-04T18:33:05;27.50;72.00
54576;DHT22;40472;53.486;14.542;2022-08-04T18:35:33;27.60;71.70
54576;DHT22;40472;53.486;14.542;2022-08-04T18:38:01;27.50;71.60
54576;DHT22;40472;53.486;14.542;2022-08-04T18:40:26;27.40;71.70
54576;DHT22;40472;53.486;14.542;2022-08-04T18:42:54;27.40;72.20
54576;DHT22;40472;53.486;14.542;2022-08-04T18:45:23;27.30;72.60
54576;DHT22;40472;53.486;14.542;2022-08-04T18:47:50;27.10;72.80
54576;DHT22;40472;53.486;14.542;2022-08-04T18:50:16;27.00;73.50
54576;DHT22;40472;53.486;14.542;2022-08-04T18:52:42;27.00;73.30
54576;DHT22;40472;53.486;14.542;2022-08-04T18:55:09;26.90;73.30
54576;DHT22;40472;53.486;14.542;2022-08-04T18:57:34;26.80;74.00
54576;DHT22;40472;53.486;14.542;2022-08-04T19:00:02;26.70;73.90
54576;DHT22;40472;53.486;14.542;2022-08-04T19:02:30;26.50;74.00
54576;DHT22;40472;53.486;14.542;2022-08-04T19:04:57;26.40;75.70
54576;DHT22;40472;53.486;14.542;2022-08-04T19:07:23;26.30;76.30
54576;DHT22;40472;53.486;14.542;2022-08-04T19:09:59;26.20;77.00
54576;DHT22;40472;53.486;14.542;2022-08-04T19:12:34;26.10;77.50
54576;DHT22;40472;53.486;14.542;2022-08-04T19:15:05;26.10;78.80
54576;DHT22;40472;53.486;14.542;2022-08-04T19:17:34;26.20;78.40
54576;DHT22;40472;53.486;14.542;2022-08-04T19:20:00;26.40;77.90
54576;DHT22;40472;53.486;14.542;2022-08-04T19:22:28;26.30;78.40
54576;DHT22;40472;53.486;14.542;2022-08-04T19:24:54;26.30;78.40
54576;DHT22;40472;53.486;14.542;2022-08-04T19:27:20;26.30;79.30
54576;DHT22;40472;53.486;14.542;2022-08-04T19:29:46;26.20;79.50
54576;DHT22;40472;53.486;14.542;2022-08-04T19:32:12;26.10;79.90
54576;DHT22;40472;53.486;14.542;2022-08-04T19:34:38;26.10;79.60
54576;DHT22;40472;53.486;14.542;2022-08-04T19:37:06;26.10;80.00
54576;DHT22;40472;53.486;14.542;2022-08-04T19:39:32;26.20;79.50
54576;DHT22;40472;53.486;14.542;2022-08-04T19:41:58;26.20;79.40
54576;DHT22;40472;53.486;14.542;2022-08-04T19:44:24;26.10;79.50
54576;DHT22;40472;53.486;14.542;2022-08-04T19:46:50;26.20;79.10
54576;DHT22;40472;53.486;14.542;2022-08-04T19:49:17;26.10;79.30
54576;DHT22;40472;53.486;14.542;2022-08-04T19:51:43;26.20;78.90
54576;DHT22;40472;53.486;14.542;2022-08-04T19:54:10;26.00;78.80
54576;DHT22;40472;53.486;14.542;2022-08-04T19:56:37;26.00;79.30
54576;DHT22;40472;53.486;14.542;2022-08-04T19:59:03;26.00;79.30
54576;DHT22;40472;53.486;14.542;2022-08-04T20:01:29;26.00;79.50
54576;DHT22;40472;53.486;14.542;2022-08-04T20:03:56;26.00;79.40
54576;DHT22;40472;53.486;14.542;2022-08-04T20:06:22;25.90;80.10
54576;DHT22;40472;53.486;14.542;2022-08-04T20:08:50;25.80;80.60
54576;DHT22;40472;53.486;14.542;2022-08-04T20:11:16;25.70;81.00
54576;DHT22;40472;53.486;14.542;2022-08-04T20:13:42;25.70;80.70
54576;DHT22;40472;53.486;14.542;2022-08-04T20:16:08;25.80;80.30
54576;DHT22;40472;53.486;14.542;2022-08-04T20:18:34;25.60;81.70
54576;DHT22;40472;53.486;14.542;2022-08-04T20:21:00;25.60;81.30
54576;DHT22;40472;53.486;14.542;2022-08-04T20:23:27;25.70;80.40
54576;DHT22;40472;53.486;14.542;2022-08-04T20:25:53;25.60;81.10
54576;DHT22;40472;53.486;14.542;2022-08-04T20:28:19;25.60;80.30